Alekseevka, Kazakhstan
Current Conditions -  °F | °C
As of 2:30 AM on Saturday 01 Nov 2014 (Local Time) from UACC Reporting Station
Broken Clouds Broken Clouds  
Wind Chill: 22°   Ceiling: 4600
Heat Index: 30°   Visibility: 6mi
Dew Point: 27°   Wind: 9mph
Humidity: 86%   Direction: 210°SSW
Pressure: 30.3"   Gusts: NA
Location:  52.01°N, 70.94°E
Report Text: UACC 312030Z 21004MPS 9999 BKN046 M01/M03 Q1026 R22/0/0070NOSIG RMK QFE738/0984
Loading
Personal Weather Stations






























Interactive Weather Map
Tropical Storm Tracking
New forecast layout! Learn more

10-Day Weather Forecast

Advertisements
Track Severe Weather on mobile